sensor_id;sensor_type;location;lat;lon;timestamp;temperature;humidity
55828;DHT22;41758;51.992;5.890;2023-10-19T00:02:06;15.30;69.50
55828;DHT22;41758;51.992;5.890;2023-10-19T00:04:40;15.30;69.50
55828;DHT22;41758;51.992;5.890;2023-10-19T00:07:06;15.30;69.50
55828;DHT22;41758;51.992;5.890;2023-10-19T00:09:34;15.30;69.50
55828;DHT22;41758;51.992;5.890;2023-10-19T00:12:04;15.40;69.50
55828;DHT22;41758;51.992;5.890;2023-10-19T00:14:35;15.40;69.50
55828;DHT22;41758;51.992;5.890;2023-10-19T00:17:01;15.40;69.60
55828;DHT22;41758;51.992;5.890;2023-10-19T00:19:32;15.40;69.60
55828;DHT22;41758;51.992;5.890;2023-10-19T00:22:03;15.40;69.70
55828;DHT22;41758;51.992;5.890;2023-10-19T00:24:34;15.40;69.80
55828;DHT22;41758;51.992;5.890;2023-10-19T00:27:00;15.50;69.80
55828;DHT22;41758;51.992;5.890;2023-10-19T00:29:33;15.50;69.90
55828;DHT22;41758;51.992;5.890;2023-10-19T00:32:05;15.60;69.90
55828;DHT22;41758;51.992;5.890;2023-10-19T00:34:32;15.60;69.90
55828;DHT22;41758;51.992;5.890;2023-10-19T00:36:59;15.60;70.00
55828;DHT22;41758;51.992;5.890;2023-10-19T00:39:36;15.70;69.90
55828;DHT22;41758;51.992;5.890;2023-10-19T00:42:21;15.70;70.00
55828;DHT22;41758;51.992;5.890;2023-10-19T00:44:52;15.70;70.00
55828;DHT22;41758;51.992;5.890;2023-10-19T00:47:25;15.80;70.10
55828;DHT22;41758;51.992;5.890;2023-10-19T00:49:55;15.80;70.10
55828;DHT22;41758;51.992;5.890;2023-10-19T00:52:21;15.80;70.10
55828;DHT22;41758;51.992;5.890;2023-10-19T00:54:50;15.80;70.10
55828;DHT22;41758;51.992;5.890;2023-10-19T00:57:19;15.90;70.10
55828;DHT22;41758;51.992;5.890;2023-10-19T01:00:11;15.90;70.10
55828;DHT22;41758;51.992;5.890;2023-10-19T01:02:38;15.90;70.10
55828;DHT22;41758;51.992;5.890;2023-10-19T01:05:11;15.90;70.20
55828;DHT22;41758;51.992;5.890;2023-10-19T01:07:39;15.90;70.10
55828;DHT22;41758;51.992;5.890;2023-10-19T01:10:08;15.90;70.20
55828;DHT22;41758;51.992;5.890;2023-10-19T01:12:34;16.00;70.30
55828;DHT22;41758;51.992;5.890;2023-10-19T01:15:13;16.00;70.30
55828;DHT22;41758;51.992;5.890;2023-10-19T01:17:58;16.00;70.30
55828;DHT22;41758;51.992;5.890;2023-10-19T01:20:29;16.00;70.30
55828;DHT22;41758;51.992;5.890;2023-10-19T01:23:08;16.10;70.40
55828;DHT22;41758;51.992;5.890;2023-10-19T01:25:56;16.10;70.40
55828;DHT22;41758;51.992;5.890;2023-10-19T01:28:30;16.10;70.30
55828;DHT22;41758;51.992;5.890;2023-10-19T01:31:18;16.20;70.40
55828;DHT22;41758;51.992;5.890;2023-10-19T01:34:07;16.20;70.50
55828;DHT22;41758;51.992;5.890;2023-10-19T01:36:35;16.20;70.50
55828;DHT22;41758;51.992;5.890;2023-10-19T01:39:10;16.20;70.40
55828;DHT22;41758;51.992;5.890;2023-10-19T01:41:38;16.30;70.50
55828;DHT22;41758;51.992;5.890;2023-10-19T01:44:05;16.20;70.50
55828;DHT22;41758;51.992;5.890;2023-10-19T01:46:33;16.30;70.50
55828;DHT22;41758;51.992;5.890;2023-10-19T01:49:00;16.30;70.60
55828;DHT22;41758;51.992;5.890;2023-10-19T01:51:29;16.30;70.50
55828;DHT22;41758;51.992;5.890;2023-10-19T01:53:56;16.40;70.70
55828;DHT22;41758;51.992;5.890;2023-10-19T01:56:22;16.40;70.90
55828;DHT22;41758;51.992;5.890;2023-10-19T01:58:49;16.40;71.30
55828;DHT22;41758;51.992;5.890;2023-10-19T02:01:17;16.40;71.40
55828;DHT22;41758;51.992;5.890;2023-10-19T02:03:50;16.40;71.40
55828;DHT22;41758;51.992;5.890;2023-10-19T02:06:21;16.40;71.50
55828;DHT22;41758;51.992;5.890;2023-10-19T02:09:02;16.50;71.70
55828;DHT22;41758;51.992;5.890;2023-10-19T02:11:35;16.50;71.60
55828;DHT22;41758;51.992;5.890;2023-10-19T02:14:03;16.50;71.60
55828;DHT22;41758;51.992;5.890;2023-10-19T02:16:34;16.50;71.70
55828;DHT22;41758;51.992;5.890;2023-10-19T02:19:02;16.60;71.60
55828;DHT22;41758;51.992;5.890;2023-10-19T02:21:28;16.60;71.60
55828;DHT22;41758;51.992;5.890;2023-10-19T02:23:58;16.60;71.60
55828;DHT22;41758;51.992;5.890;2023-10-19T02:26:24;16.70;71.60
55828;DHT22;41758;51.992;5.890;2023-10-19T02:28:52;16.70;71.60
55828;DHT22;41758;51.992;5.890;2023-10-19T02:31:19;16.70;71.60
55828;DHT22;41758;51.992;5.890;2023-10-19T02:33:49;16.70;71.70
55828;DHT22;41758;51.992;5.890;2023-10-19T02:36:18;16.80;71.70
55828;DHT22;41758;51.992;5.890;2023-10-19T02:38:48;16.80;71.60
55828;DHT22;41758;51.992;5.890;2023-10-19T02:41:20;16.80;71.60
55828;DHT22;41758;51.992;5.890;2023-10-19T02:43:47;16.80;71.60
55828;DHT22;41758;51.992;5.890;2023-10-19T02:46:17;16.90;71.60
55828;DHT22;41758;51.992;5.890;2023-10-19T02:48:46;16.90;71.60
55828;DHT22;41758;51.992;5.890;2023-10-19T02:51:15;17.00;71.50
55828;DHT22;41758;51.992;5.890;2023-10-19T02:53:41;17.00;71.50
55828;DHT22;41758;51.992;5.890;2023-10-19T02:56:15;17.00;71.40
55828;DHT22;41758;51.992;5.890;2023-10-19T02:58:45;17.00;71.40
55828;DHT22;41758;51.992;5.890;2023-10-19T03:01:21;17.10;71.40
55828;DHT22;41758;51.992;5.890;2023-10-19T03:03:49;17.10;71.40
55828;DHT22;41758;51.992;5.890;2023-10-19T03:06:18;17.10;71.30
55828;DHT22;41758;51.992;5.890;2023-10-19T03:08:46;17.10;71.30
55828;DHT22;41758;51.992;5.890;2023-10-19T03:11:13;17.10;71.30
55828;DHT22;41758;51.992;5.890;2023-10-19T03:13:40;17.20;71.30
55828;DHT22;41758;51.992;5.890;2023-10-19T03:16:09;17.20;71.30
55828;DHT22;41758;51.992;5.890;2023-10-19T03:18:36;17.20;71.30
55828;DHT22;41758;51.992;5.890;2023-10-19T03:21:03;17.20;71.30
55828;DHT22;41758;51.992;5.890;2023-10-19T03:23:28;17.20;71.30
55828;DHT22;41758;51.992;5.890;2023-10-19T03:25:57;17.30;71.20
55828;DHT22;41758;51.992;5.890;2023-10-19T03:28:41;17.30;71.20
55828;DHT22;41758;51.992;5.890;2023-10-19T03:31:08;17.30;71.20
55828;DHT22;41758;51.992;5.890;2023-10-19T03:33:34;17.30;71.20
55828;DHT22;41758;51.992;5.890;2023-10-19T03:36:02;17.30;71.30
55828;DHT22;41758;51.992;5.890;2023-10-19T03:38:34;17.30;71.30
55828;DHT22;41758;51.992;5.890;2023-10-19T03:41:02;17.30;71.20
55828;DHT22;41758;51.992;5.890;2023-10-19T03:43:33;17.30;71.20
55828;DHT22;41758;51.992;5.890;2023-10-19T03:45:58;17.30;71.20
55828;DHT22;41758;51.992;5.890;2023-10-19T03:48:29;17.30;71.20
55828;DHT22;41758;51.992;5.890;2023-10-19T03:51:01;17.30;71.20
55828;DHT22;41758;51.992;5.890;2023-10-19T03:53:28;17.40;71.30
55828;DHT22;41758;51.992;5.890;2023-10-19T03:55:54;17.40;71.30
55828;DHT22;41758;51.992;5.890;2023-10-19T03:58:20;17.40;71.30
55828;DHT22;41758;51.992;5.890;2023-10-19T04:00:49;17.50;71.20
55828;DHT22;41758;51.992;5.890;2023-10-19T04:03:16;17.50;71.20
55828;DHT22;41758;51.992;5.890;2023-10-19T04:05:50;17.50;71.20
55828;DHT22;41758;51.992;5.890;2023-10-19T04:08:16;17.50;71.00
55828;DHT22;41758;51.992;5.890;2023-10-19T04:10:52;17.50;71.00
55828;DHT22;41758;51.992;5.890;2023-10-19T04:13:56;17.50;71.00
55828;DHT22;41758;51.992;5.890;2023-10-19T04:16:24;17.50;71.00
55828;DHT22;41758;51.992;5.890;2023-10-19T04:18:50;17.50;70.90
55828;DHT22;41758;51.992;5.890;2023-10-19T04:21:16;17.50;70.90
55828;DHT22;41758;51.992;5.890;2023-10-19T04:23:41;17.50;70.90
55828;DHT22;41758;51.992;5.890;2023-10-19T04:26:07;17.50;70.90
55828;DHT22;41758;51.992;5.890;2023-10-19T04:28:42;17.50;70.90
55828;DHT22;41758;51.992;5.890;2023-10-19T04:31:15;17.50;70.90
55828;DHT22;41758;51.992;5.890;2023-10-19T04:33:42;17.40;71.00
55828;DHT22;41758;51.992;5.890;2023-10-19T04:36:11;17.40;71.10
55828;DHT22;41758;51.992;5.890;2023-10-19T04:38:37;17.50;71.20
55828;DHT22;41758;51.992;5.890;2023-10-19T04:41:07;17.50;71.20
55828;DHT22;41758;51.992;5.890;2023-10-19T04:43:34;17.50;71.20
55828;DHT22;41758;51.992;5.890;2023-10-19T04:46:10;17.50;71.30
55828;DHT22;41758;51.992;5.890;2023-10-19T04:48:38;17.50;71.30
55828;DHT22;41758;51.992;5.890;2023-10-19T04:51:06;17.60;71.30
55828;DHT22;41758;51.992;5.890;2023-10-19T04:53:32;17.60;71.30
55828;DHT22;41758;51.992;5.890;2023-10-19T04:55:58;17.70;71.30
55828;DHT22;41758;51.992;5.890;2023-10-19T04:58:29;17.60;71.20
55828;DHT22;41758;51.992;5.890;2023-10-19T05:00:55;17.70;71.20
55828;DHT22;41758;51.992;5.890;2023-10-19T05:03:21;17.70;71.10
55828;DHT22;41758;51.992;5.890;2023-10-19T05:05:47;17.70;71.00
55828;DHT22;41758;51.992;5.890;2023-10-19T05:08:13;17.70;70.90
55828;DHT22;41758;51.992;5.890;2023-10-19T05:10:38;17.70;70.90
55828;DHT22;41758;51.992;5.890;2023-10-19T05:13:05;17.70;70.70
55828;DHT22;41758;51.992;5.890;2023-10-19T05:15:31;17.70;70.70
55828;DHT22;41758;51.992;5.890;2023-10-19T05:17:59;17.60;70.60
55828;DHT22;41758;51.992;5.890;2023-10-19T05:20:25;17.60;70.60
55828;DHT22;41758;51.992;5.890;2023-10-19T05:22:51;17.60;70.60
55828;DHT22;41758;51.992;5.890;2023-10-19T05:25:16;17.60;70.60
55828;DHT22;41758;51.992;5.890;2023-10-19T05:27:42;17.60;70.60
55828;DHT22;41758;51.992;5.890;2023-10-19T05:30:08;17.50;70.60
55828;DHT22;41758;51.992;5.890;2023-10-19T05:32:37;17.50;70.60
55828;DHT22;41758;51.992;5.890;2023-10-19T05:35:03;17.50;70.70
55828;DHT22;41758;51.992;5.890;2023-10-19T05:37:31;17.40;70.60
55828;DHT22;41758;51.992;5.890;2023-10-19T05:39:56;17.40;70.70
55828;DHT22;41758;51.992;5.890;2023-10-19T05:42:22;17.40;70.70
55828;DHT22;41758;51.992;5.890;2023-10-19T05:44:48;17.40;70.70
55828;DHT22;41758;51.992;5.890;2023-10-19T05:47:14;17.40;70.70
55828;DHT22;41758;51.992;5.890;2023-10-19T05:49:39;17.50;70.70
55828;DHT22;41758;51.992;5.890;2023-10-19T05:52:05;17.40;70.70
55828;DHT22;41758;51.992;5.890;2023-10-19T05:54:31;17.40;70.70
55828;DHT22;41758;51.992;5.890;2023-10-19T05:56:56;17.40;70.80
55828;DHT22;41758;51.992;5.890;2023-10-19T05:59:22;17.40;70.80
55828;DHT22;41758;51.992;5.890;2023-10-19T06:01:52;17.50;70.80
55828;DHT22;41758;51.992;5.890;2023-10-19T06:04:17;17.50;70.80
55828;DHT22;41758;51.992;5.890;2023-10-19T06:06:43;17.50;70.90
55828;DHT22;41758;51.992;5.890;2023-10-19T06:09:09;17.50;70.90
55828;DHT22;41758;51.992;5.890;2023-10-19T06:11:35;17.50;70.90
55828;DHT22;41758;51.992;5.890;2023-10-19T06:14:06;17.60;70.90
55828;DHT22;41758;51.992;5.890;2023-10-19T06:16:33;17.60;70.80
55828;DHT22;41758;51.992;5.890;2023-10-19T06:18:59;17.50;70.80
55828;DHT22;41758;51.992;5.890;2023-10-19T06:21:25;17.60;70.90
55828;DHT22;41758;51.992;5.890;2023-10-19T06:23:51;17.60;70.80
55828;DHT22;41758;51.992;5.890;2023-10-19T06:26:18;17.60;70.90
55828;DHT22;41758;51.992;5.890;2023-10-19T06:28:44;17.60;70.90
55828;DHT22;41758;51.992;5.890;2023-10-19T06:31:10;17.60;71.00
55828;DHT22;41758;51.992;5.890;2023-10-19T06:33:36;17.60;70.90
55828;DHT22;41758;51.992;5.890;2023-10-19T06:36:02;17.60;70.90
55828;DHT22;41758;51.992;5.890;2023-10-19T06:38:30;17.70;70.90
55828;DHT22;41758;51.992;5.890;2023-10-19T06:40:59;17.70;70.90
55828;DHT22;41758;51.992;5.890;2023-10-19T06:43:28;17.70;70.90
55828;DHT22;41758;51.992;5.890;2023-10-19T06:45:56;17.70;70.90
55828;DHT22;41758;51.992;5.890;2023-10-19T06:48:21;17.70;71.00
55828;DHT22;41758;51.992;5.890;2023-10-19T06:50:47;17.70;71.00
55828;DHT22;41758;51.992;5.890;2023-10-19T06:53:13;17.70;71.00
55828;DHT22;41758;51.992;5.890;2023-10-19T06:55:39;17.80;71.00
55828;DHT22;41758;51.992;5.890;2023-10-19T06:58:05;17.80;71.00
55828;DHT22;41758;51.992;5.890;2023-10-19T07:00:32;17.80;71.00
55828;DHT22;41758;51.992;5.890;2023-10-19T07:02:59;17.80;71.00
55828;DHT22;41758;51.992;5.890;2023-10-19T07:05:26;17.80;71.00
55828;DHT22;41758;51.992;5.890;2023-10-19T07:07:56;17.90;71.00
55828;DHT22;41758;51.992;5.890;2023-10-19T07:10:23;17.90;71.10
55828;DHT22;41758;51.992;5.890;2023-10-19T07:12:52;17.90;71.10
55828;DHT22;41758;51.992;5.890;2023-10-19T07:15:19;17.90;71.10
55828;DHT22;41758;51.992;5.890;2023-10-19T07:17:49;18.00;71.20
55828;DHT22;41758;51.992;5.890;2023-10-19T07:20:16;18.00;71.20
55828;DHT22;41758;51.992;5.890;2023-10-19T07:23:01;18.00;71.20
55828;DHT22;41758;51.992;5.890;2023-10-19T07:25:44;18.10;71.30
55828;DHT22;41758;51.992;5.890;2023-10-19T07:28:11;18.10;71.30
55828;DHT22;41758;51.992;5.890;2023-10-19T07:30:39;18.20;71.40
55828;DHT22;41758;51.992;5.890;2023-10-19T07:33:05;18.20;71.30
55828;DHT22;41758;51.992;5.890;2023-10-19T07:35:35;18.30;71.40
55828;DHT22;41758;51.992;5.890;2023-10-19T07:38:03;18.30;71.40
55828;DHT22;41758;51.992;5.890;2023-10-19T07:40:30;18.30;71.40
55828;DHT22;41758;51.992;5.890;2023-10-19T07:42:55;18.40;71.40
55828;DHT22;41758;51.992;5.890;2023-10-19T07:45:22;18.40;71.40
55828;DHT22;41758;51.992;5.890;2023-10-19T07:47:47;18.50;71.50
55828;DHT22;41758;51.992;5.890;2023-10-19T07:50:14;18.50;71.60
55828;DHT22;41758;51.992;5.890;2023-10-19T07:52:51;18.60;71.60
55828;DHT22;41758;51.992;5.890;2023-10-19T07:55:17;18.60;71.50
55828;DHT22;41758;51.992;5.890;2023-10-19T07:57:44;18.70;71.50
55828;DHT22;41758;51.992;5.890;2023-10-19T08:00:11;18.70;71.50
55828;DHT22;41758;51.992;5.890;2023-10-19T08:02:39;18.80;71.50
55828;DHT22;41758;51.992;5.890;2023-10-19T08:05:08;18.80;71.50
55828;DHT22;41758;51.992;5.890;2023-10-19T08:07:34;18.80;71.50
55828;DHT22;41758;51.992;5.890;2023-10-19T08:10:02;18.90;71.60
55828;DHT22;41758;51.992;5.890;2023-10-19T08:12:31;18.90;71.60
55828;DHT22;41758;51.992;5.890;2023-10-19T08:14:58;19.00;71.60
55828;DHT22;41758;51.992;5.890;2023-10-19T08:17:25;19.00;71.60
55828;DHT22;41758;51.992;5.890;2023-10-19T08:19:50;19.10;71.60
55828;DHT22;41758;51.992;5.890;2023-10-19T08:22:16;19.10;71.60
55828;DHT22;41758;51.992;5.890;2023-10-19T08:24:42;19.10;71.60
55828;DHT22;41758;51.992;5.890;2023-10-19T08:27:12;19.20;71.60
55828;DHT22;41758;51.992;5.890;2023-10-19T08:29:39;19.20;71.60
55828;DHT22;41758;51.992;5.890;2023-10-19T08:32:05;19.20;71.60
55828;DHT22;41758;51.992;5.890;2023-10-19T08:34:37;19.30;71.60
55828;DHT22;41758;51.992;5.890;2023-10-19T08:37:05;19.30;71.50
55828;DHT22;41758;51.992;5.890;2023-10-19T08:39:32;19.30;71.50
55828;DHT22;41758;51.992;5.890;2023-10-19T08:42:05;19.40;71.60
55828;DHT22;41758;51.992;5.890;2023-10-19T08:44:32;19.40;71.60
55828;DHT22;41758;51.992;5.890;2023-10-19T08:46:58;19.40;71.60
55828;DHT22;41758;51.992;5.890;2023-10-19T08:49:25;19.40;71.60
55828;DHT22;41758;51.992;5.890;2023-10-19T08:51:53;19.50;71.60
55828;DHT22;41758;51.992;5.890;2023-10-19T08:54:20;19.50;71.60
55828;DHT22;41758;51.992;5.890;2023-10-19T08:56:46;19.50;71.60
55828;DHT22;41758;51.992;5.890;2023-10-19T08:59:13;19.60;71.70
55828;DHT22;41758;51.992;5.890;2023-10-19T09:01:41;19.60;71.70
55828;DHT22;41758;51.992;5.890;2023-10-19T09:04:13;19.70;71.70
55828;DHT22;41758;51.992;5.890;2023-10-19T09:06:39;19.70;71.80
55828;DHT22;41758;51.992;5.890;2023-10-19T09:09:09;19.80;71.80
55828;DHT22;41758;51.992;5.890;2023-10-19T09:11:39;19.90;71.80
55828;DHT22;41758;51.992;5.890;2023-10-19T09:14:05;19.90;71.80
55828;DHT22;41758;51.992;5.890;2023-10-19T09:16:31;19.90;71.80
55828;DHT22;41758;51.992;5.890;2023-10-19T09:18:57;20.00;71.80
55828;DHT22;41758;51.992;5.890;2023-10-19T09:21:23;20.00;71.70
55828;DHT22;41758;51.992;5.890;2023-10-19T09:23:55;20.10;71.70
55828;DHT22;41758;51.992;5.890;2023-10-19T09:26:22;20.10;71.70
55828;DHT22;41758;51.992;5.890;2023-10-19T09:28:49;20.10;71.70
55828;DHT22;41758;51.992;5.890;2023-10-19T09:31:19;20.20;71.60
55828;DHT22;41758;51.992;5.890;2023-10-19T09:33:47;20.10;71.60
55828;DHT22;41758;51.992;5.890;2023-10-19T09:36:14;20.20;71.60
55828;DHT22;41758;51.992;5.890;2023-10-19T09:38:46;20.20;71.60
55828;DHT22;41758;51.992;5.890;2023-10-19T09:41:17;20.30;71.70
55828;DHT22;41758;51.992;5.890;2023-10-19T09:43:47;20.30;71.80
55828;DHT22;41758;51.992;5.890;2023-10-19T09:46:24;20.30;71.70
55828;DHT22;41758;51.992;5.890;2023-10-19T09:48:51;20.30;71.70
55828;DHT22;41758;51.992;5.890;2023-10-19T09:51:18;20.40;71.90
55828;DHT22;41758;51.992;5.890;2023-10-19T09:54:07;20.40;71.90
55828;DHT22;41758;51.992;5.890;2023-10-19T09:56:40;20.50;72.00
55828;DHT22;41758;51.992;5.890;2023-10-19T09:59:45;20.60;72.10
55828;DHT22;41758;51.992;5.890;2023-10-19T10:02:06;20.60;72.10
55828;DHT22;41758;51.992;5.890;2023-10-19T10:04:33;20.70;72.30
55828;DHT22;41758;51.992;5.890;2023-10-19T10:07:01;20.80;72.20
55828;DHT22;41758;51.992;5.890;2023-10-19T10:09:26;20.80;72.30
55828;DHT22;41758;51.992;5.890;2023-10-19T10:11:53;20.90;72.30
55828;DHT22;41758;51.992;5.890;2023-10-19T10:14:25;20.90;72.20
55828;DHT22;41758;51.992;5.890;2023-10-19T10:17:01;21.00;72.20
55828;DHT22;41758;51.992;5.890;2023-10-19T10:19:26;21.10;72.10
55828;DHT22;41758;51.992;5.890;2023-10-19T10:22:08;21.10;72.20
55828;DHT22;41758;51.992;5.890;2023-10-19T10:24:43;21.20;72.10
55828;DHT22;41758;51.992;5.890;2023-10-19T10:27:09;21.20;72.10
55828;DHT22;41758;51.992;5.890;2023-10-19T10:29:36;21.20;72.10
55828;DHT22;41758;51.992;5.890;2023-10-19T10:32:02;21.30;72.10
55828;DHT22;41758;51.992;5.890;2023-10-19T10:37:06;21.30;72.10
55828;DHT22;41758;51.992;5.890;2023-10-19T10:39:37;21.30;71.80
55828;DHT22;41758;51.992;5.890;2023-10-19T10:42:05;21.30;71.70
55828;DHT22;41758;51.992;5.890;2023-10-19T10:44:40;21.30;71.80
55828;DHT22;41758;51.992;5.890;2023-10-19T10:49:49;21.30;72.10
55828;DHT22;41758;51.992;5.890;2023-10-19T10:55:08;21.40;72.30
55828;DHT22;41758;51.992;5.890;2023-10-19T10:57:39;21.50;72.30
55828;DHT22;41758;51.992;5.890;2023-10-19T11:00:12;21.50;72.30
55828;DHT22;41758;51.992;5.890;2023-10-19T11:02:42;21.50;72.20
55828;DHT22;41758;51.992;5.890;2023-10-19T11:05:13;21.60;72.20
55828;DHT22;41758;51.992;5.890;2023-10-19T11:10:29;21.60;72.10
55828;DHT22;41758;51.992;5.890;2023-10-19T11:15:27;21.70;72.20
55828;DHT22;41758;51.992;5.890;2023-10-19T11:17:53;21.70;72.20
55828;DHT22;41758;51.992;5.890;2023-10-19T11:20:23;21.80;72.20
55828;DHT22;41758;51.992;5.890;2023-10-19T11:22:53;21.80;72.20
55828;DHT22;41758;51.992;5.890;2023-10-19T11:25:26;21.90;72.40
55828;DHT22;41758;51.992;5.890;2023-10-19T11:27:55;21.90;72.40
55828;DHT22;41758;51.992;5.890;2023-10-19T11:30:28;22.00;72.50
55828;DHT22;41758;51.992;5.890;2023-10-19T11:32:55;22.10;72.80
55828;DHT22;41758;51.992;5.890;2023-10-19T11:35:29;22.20;72.90
55828;DHT22;41758;51.992;5.890;2023-10-19T11:37:57;22.30;72.80
55828;DHT22;41758;51.992;5.890;2023-10-19T11:40:23;22.30;72.60
55828;DHT22;41758;51.992;5.890;2023-10-19T11:42:51;22.30;72.70
55828;DHT22;41758;51.992;5.890;2023-10-19T11:45:17;22.30;72.70
55828;DHT22;41758;51.992;5.890;2023-10-19T11:47:44;22.40;72.70
55828;DHT22;41758;51.992;5.890;2023-10-19T11:50:11;22.40;72.80
55828;DHT22;41758;51.992;5.890;2023-10-19T11:52:40;22.50;73.20
55828;DHT22;41758;51.992;5.890;2023-10-19T11:55:06;22.60;73.40
55828;DHT22;41758;51.992;5.890;2023-10-19T11:57:34;22.70;73.20
55828;DHT22;41758;51.992;5.890;2023-10-19T12:00:00;22.70;72.60
55828;DHT22;41758;51.992;5.890;2023-10-19T12:02:26;22.60;72.20
55828;DHT22;41758;51.992;5.890;2023-10-19T12:04:52;22.60;72.40
55828;DHT22;41758;51.992;5.890;2023-10-19T12:07:18;22.70;72.70
55828;DHT22;41758;51.992;5.890;2023-10-19T12:09:43;22.80;73.30
55828;DHT22;41758;51.992;5.890;2023-10-19T12:12:10;22.90;73.00
55828;DHT22;41758;51.992;5.890;2023-10-19T12:14:36;22.90;72.90
55828;DHT22;41758;51.992;5.890;2023-10-19T12:17:02;22.90;72.60
55828;DHT22;41758;51.992;5.890;2023-10-19T12:19:31;22.90;72.60
55828;DHT22;41758;51.992;5.890;2023-10-19T12:21:57;23.00;72.60
55828;DHT22;41758;51.992;5.890;2023-10-19T12:24:23;22.90;72.40
55828;DHT22;41758;51.992;5.890;2023-10-19T12:26:49;23.00;72.50
55828;DHT22;41758;51.992;5.890;2023-10-19T12:29:17;23.00;72.40
55828;DHT22;41758;51.992;5.890;2023-10-19T12:31:47;22.90;72.30
55828;DHT22;41758;51.992;5.890;2023-10-19T12:34:12;22.90;71.90
55828;DHT22;41758;51.992;5.890;2023-10-19T12:36:38;22.90;71.80
55828;DHT22;41758;51.992;5.890;2023-10-19T12:39:04;22.80;71.90
55828;DHT22;41758;51.992;5.890;2023-10-19T12:41:33;22.80;72.00
55828;DHT22;41758;51.992;5.890;2023-10-19T12:43:59;22.80;72.10
55828;DHT22;41758;51.992;5.890;2023-10-19T12:46:33;22.80;72.10
55828;DHT22;41758;51.992;5.890;2023-10-19T12:49:04;22.80;72.10
55828;DHT22;41758;51.992;5.890;2023-10-19T12:51:33;22.70;72.00
55828;DHT22;41758;51.992;5.890;2023-10-19T12:54:00;22.70;71.80
55828;DHT22;41758;51.992;5.890;2023-10-19T12:56:28;22.60;71.80
55828;DHT22;41758;51.992;5.890;2023-10-19T12:58:54;22.50;71.80
55828;DHT22;41758;51.992;5.890;2023-10-19T13:01:20;22.50;71.70
55828;DHT22;41758;51.992;5.890;2023-10-19T13:03:47;22.40;71.80
55828;DHT22;41758;51.992;5.890;2023-10-19T13:06:15;22.40;71.80
55828;DHT22;41758;51.992;5.890;2023-10-19T13:08:41;22.40;71.80
55828;DHT22;41758;51.992;5.890;2023-10-19T13:11:08;22.30;71.80
55828;DHT22;41758;51.992;5.890;2023-10-19T13:13:35;22.30;71.80
55828;DHT22;41758;51.992;5.890;2023-10-19T13:16:04;22.20;71.90
55828;DHT22;41758;51.992;5.890;2023-10-19T13:18:31;22.20;71.90
55828;DHT22;41758;51.992;5.890;2023-10-19T13:21:00;22.20;72.00
55828;DHT22;41758;51.992;5.890;2023-10-19T13:23:31;22.20;72.00
55828;DHT22;41758;51.992;5.890;2023-10-19T13:25:59;22.10;72.10
55828;DHT22;41758;51.992;5.890;2023-10-19T13:28:42;22.10;72.10
55828;DHT22;41758;51.992;5.890;2023-10-19T13:31:08;22.10;72.20
55828;DHT22;41758;51.992;5.890;2023-10-19T13:33:39;22.00;72.30
55828;DHT22;41758;51.992;5.890;2023-10-19T13:36:07;22.00;72.40
55828;DHT22;41758;51.992;5.890;2023-10-19T13:38:33;22.00;72.30
55828;DHT22;41758;51.992;5.890;2023-10-19T13:41:02;22.00;72.40
55828;DHT22;41758;51.992;5.890;2023-10-19T13:43:27;22.00;72.40
55828;DHT22;41758;51.992;5.890;2023-10-19T13:45:53;21.90;72.30
55828;DHT22;41758;51.992;5.890;2023-10-19T13:48:19;22.00;72.40
55828;DHT22;41758;51.992;5.890;2023-10-19T13:50:47;21.90;72.40
55828;DHT22;41758;51.992;5.890;2023-10-19T13:53:18;22.00;72.50
55828;DHT22;41758;51.992;5.890;2023-10-19T13:55:45;21.90;72.60
55828;DHT22;41758;51.992;5.890;2023-10-19T13:58:11;22.00;72.70
55828;DHT22;41758;51.992;5.890;2023-10-19T14:00:41;22.00;72.80
55828;DHT22;41758;51.992;5.890;2023-10-19T14:03:09;22.10;72.80
55828;DHT22;41758;51.992;5.890;2023-10-19T14:05:45;22.10;72.90
55828;DHT22;41758;51.992;5.890;2023-10-19T14:08:15;22.20;72.80
55828;DHT22;41758;51.992;5.890;2023-10-19T14:10:41;22.20;72.80
55828;DHT22;41758;51.992;5.890;2023-10-19T14:13:10;22.20;72.70
55828;DHT22;41758;51.992;5.890;2023-10-19T14:15:43;22.30;72.70
55828;DHT22;41758;51.992;5.890;2023-10-19T14:18:09;22.30;72.70
55828;DHT22;41758;51.992;5.890;2023-10-19T14:20:35;22.30;72.70
55828;DHT22;41758;51.992;5.890;2023-10-19T14:23:04;22.30;72.60
55828;DHT22;41758;51.992;5.890;2023-10-19T14:25:30;22.30;72.50
55828;DHT22;41758;51.992;5.890;2023-10-19T14:27:56;22.30;72.40
55828;DHT22;41758;51.992;5.890;2023-10-19T14:30:27;22.30;72.30
55828;DHT22;41758;51.992;5.890;2023-10-19T14:32:54;22.20;72.20
55828;DHT22;41758;51.992;5.890;2023-10-19T14:35:21;22.20;72.20
55828;DHT22;41758;51.992;5.890;2023-10-19T14:37:49;22.10;72.10
55828;DHT22;41758;51.992;5.890;2023-10-19T14:40:20;22.10;72.10
55828;DHT22;41758;51.992;5.890;2023-10-19T14:42:47;22.00;72.10
55828;DHT22;41758;51.992;5.890;2023-10-19T14:45:16;22.00;72.10
55828;DHT22;41758;51.992;5.890;2023-10-19T14:47:46;22.00;72.10
55828;DHT22;41758;51.992;5.890;2023-10-19T14:50:13;21.90;72.20
55828;DHT22;41758;51.992;5.890;2023-10-19T14:52:42;21.90;72.30
55828;DHT22;41758;51.992;5.890;2023-10-19T14:55:09;21.90;72.30
55828;DHT22;41758;51.992;5.890;2023-10-19T14:57:38;21.80;72.40
55828;DHT22;41758;51.992;5.890;2023-10-19T15:00:06;21.80;72.40
55828;DHT22;41758;51.992;5.890;2023-10-19T15:02:56;21.80;72.40
55828;DHT22;41758;51.992;5.890;2023-10-19T15:05:29;21.70;72.40
55828;DHT22;41758;51.992;5.890;2023-10-19T15:07:55;21.70;72.40
55828;DHT22;41758;51.992;5.890;2023-10-19T15:10:23;21.70;72.40
55828;DHT22;41758;51.992;5.890;2023-10-19T15:12:49;21.60;72.40
55828;DHT22;41758;51.992;5.890;2023-10-19T15:15:15;21.60;72.30
55828;DHT22;41758;51.992;5.890;2023-10-19T15:17:45;21.60;72.30
55828;DHT22;41758;51.992;5.890;2023-10-19T15:20:13;21.50;72.30
55828;DHT22;41758;51.992;5.890;2023-10-19T15:22:40;21.50;72.40
55828;DHT22;41758;51.992;5.890;2023-10-19T15:25:06;21.40;72.40
55828;DHT22;41758;51.992;5.890;2023-10-19T15:27:33;21.40;72.50
55828;DHT22;41758;51.992;5.890;2023-10-19T15:30:00;21.30;72.50
55828;DHT22;41758;51.992;5.890;2023-10-19T15:32:26;21.30;72.50
55828;DHT22;41758;51.992;5.890;2023-10-19T15:34:51;21.30;72.50
55828;DHT22;41758;51.992;5.890;2023-10-19T15:37:18;21.30;72.60
55828;DHT22;41758;51.992;5.890;2023-10-19T15:39:44;21.30;72.70
55828;DHT22;41758;51.992;5.890;2023-10-19T15:42:11;21.30;72.80
55828;DHT22;41758;51.992;5.890;2023-10-19T15:44:40;21.30;72.80
55828;DHT22;41758;51.992;5.890;2023-10-19T15:47:06;21.30;72.90
55828;DHT22;41758;51.992;5.890;2023-10-19T15:49:48;21.20;72.90
55828;DHT22;41758;51.992;5.890;2023-10-19T15:52:18;21.30;72.90
55828;DHT22;41758;51.992;5.890;2023-10-19T15:54:44;21.20;72.90